sensor_id;sensor_type;location;lat;lon;timestamp;P1;durP1;ratioP1;P2;durP2;ratioP2
22357;SDS011;11346;50.150;8.150;2023-06-14T00:00:06;5.70;;;5.10;;
22357;SDS011;11346;50.150;8.150;2023-06-14T00:02:35;5.87;;;4.83;;
22357;SDS011;11346;50.150;8.150;2023-06-14T00:05:02;6.10;;;5.13;;
22357;SDS011;11346;50.150;8.150;2023-06-14T00:07:33;7.27;;;5.07;;
22357;SDS011;11346;50.150;8.150;2023-06-14T00:10:00;6.87;;;5.57;;
22357;SDS011;11346;50.150;8.150;2023-06-14T00:12:27;6.57;;;4.80;;
22357;SDS011;11346;50.150;8.150;2023-06-14T00:14:54;6.10;;;4.80;;
22357;SDS011;11346;50.150;8.150;2023-06-14T00:17:21;6.53;;;5.13;;
22357;SDS011;11346;50.150;8.150;2023-06-14T00:19:51;8.27;;;4.90;;
22357;SDS011;11346;50.150;8.150;2023-06-14T00:22:19;6.17;;;5.13;;
22357;SDS011;11346;50.150;8.150;2023-06-14T00:24:46;7.50;;;5.23;;
22357;SDS011;11346;50.150;8.150;2023-06-14T00:27:13;8.20;;;5.10;;
22357;SDS011;11346;50.150;8.150;2023-06-14T00:29:40;6.83;;;5.30;;
22357;SDS011;11346;50.150;8.150;2023-06-14T00:32:07;8.43;;;5.10;;
22357;SDS011;11346;50.150;8.150;2023-06-14T00:34:34;6.83;;;5.00;;
22357;SDS011;11346;50.150;8.150;2023-06-14T00:37:03;6.07;;;5.13;;
22357;SDS011;11346;50.150;8.150;2023-06-14T00:39:30;7.87;;;5.00;;
22357;SDS011;11346;50.150;8.150;2023-06-14T00:41:57;6.33;;;5.00;;
22357;SDS011;11346;50.150;8.150;2023-06-14T00:44:24;7.20;;;5.37;;
22357;SDS011;11346;50.150;8.150;2023-06-14T00:46:51;6.77;;;5.20;;
22357;SDS011;11346;50.150;8.150;2023-06-14T00:49:18;8.47;;;5.23;;
22357;SDS011;11346;50.150;8.150;2023-06-14T00:51:45;6.40;;;5.60;;
22357;SDS011;11346;50.150;8.150;2023-06-14T00:54:14;11.70;;;5.67;;
22357;SDS011;11346;50.150;8.150;2023-06-14T00:56:41;7.93;;;5.23;;
22357;SDS011;11346;50.150;8.150;2023-06-14T00:59:08;6.10;;;5.27;;
22357;SDS011;11346;50.150;8.150;2023-06-14T01:01:36;5.93;;;5.07;;
22357;SDS011;11346;50.150;8.150;2023-06-14T01:04:04;5.97;;;5.27;;
22357;SDS011;11346;50.150;8.150;2023-06-14T01:06:32;10.87;;;5.47;;
22357;SDS011;11346;50.150;8.150;2023-06-14T01:09:08;6.50;;;5.43;;
22357;SDS011;11346;50.150;8.150;2023-06-14T01:11:41;8.63;;;5.20;;
22357;SDS011;11346;50.150;8.150;2023-06-14T01:14:10;6.67;;;5.30;;
22357;SDS011;11346;50.150;8.150;2023-06-14T01:16:38;6.70;;;5.80;;
22357;SDS011;11346;50.150;8.150;2023-06-14T01:19:06;8.70;;;5.20;;
22357;SDS011;11346;50.150;8.150;2023-06-14T01:21:37;9.17;;;5.60;;
22357;SDS011;11346;50.150;8.150;2023-06-14T01:24:08;10.87;;;5.80;;
22357;SDS011;11346;50.150;8.150;2023-06-14T01:26:36;7.53;;;5.97;;
22357;SDS011;11346;50.150;8.150;2023-06-14T01:29:03;6.20;;;5.20;;
22357;SDS011;11346;50.150;8.150;2023-06-14T01:31:31;7.93;;;5.63;;
22357;SDS011;11346;50.150;8.150;2023-06-14T01:34:06;8.63;;;5.43;;
22357;SDS011;11346;50.150;8.150;2023-06-14T01:36:33;10.10;;;5.37;;
22357;SDS011;11346;50.150;8.150;2023-06-14T01:39:02;7.27;;;5.40;;
22357;SDS011;11346;50.150;8.150;2023-06-14T01:41:31;10.67;;;5.37;;
22357;SDS011;11346;50.150;8.150;2023-06-14T01:43:58;8.27;;;5.17;;
22357;SDS011;11346;50.150;8.150;2023-06-14T01:46:25;7.50;;;5.13;;
22357;SDS011;11346;50.150;8.150;2023-06-14T01:48:52;8.03;;;5.83;;
22357;SDS011;11346;50.150;8.150;2023-06-14T01:51:19;8.33;;;5.60;;
22357;SDS011;11346;50.150;8.150;2023-06-14T01:53:46;6.30;;;5.10;;
22357;SDS011;11346;50.150;8.150;2023-06-14T01:56:13;8.73;;;5.73;;
22357;SDS011;11346;50.150;8.150;2023-06-14T01:58:42;7.07;;;5.10;;
22357;SDS011;11346;50.150;8.150;2023-06-14T02:01:09;5.90;;;5.30;;
22357;SDS011;11346;50.150;8.150;2023-06-14T02:03:36;7.53;;;5.27;;
22357;SDS011;11346;50.150;8.150;2023-06-14T02:06:04;5.63;;;4.93;;
22357;SDS011;11346;50.150;8.150;2023-06-14T02:08:31;7.03;;;5.50;;
22357;SDS011;11346;50.150;8.150;2023-06-14T02:10:58;7.60;;;5.17;;
22357;SDS011;11346;50.150;8.150;2023-06-14T02:13:25;5.77;;;5.03;;
22357;SDS011;11346;50.150;8.150;2023-06-14T02:15:53;9.40;;;5.40;;
22357;SDS011;11346;50.150;8.150;2023-06-14T02:18:20;6.60;;;4.87;;
22357;SDS011;11346;50.150;8.150;2023-06-14T02:20:47;10.33;;;5.33;;
22357;SDS011;11346;50.150;8.150;2023-06-14T02:23:14;8.63;;;5.70;;
22357;SDS011;11346;50.150;8.150;2023-06-14T02:25:41;6.37;;;5.13;;
22357;SDS011;11346;50.150;8.150;2023-06-14T02:28:09;10.37;;;5.73;;
22357;SDS011;11346;50.150;8.150;2023-06-14T02:30:36;7.13;;;5.83;;
22357;SDS011;11346;50.150;8.150;2023-06-14T02:33:05;5.70;;;5.00;;
22357;SDS011;11346;50.150;8.150;2023-06-14T02:35:32;5.80;;;5.07;;
22357;SDS011;11346;50.150;8.150;2023-06-14T02:37:59;9.60;;;5.13;;
22357;SDS011;11346;50.150;8.150;2023-06-14T02:40:26;7.87;;;5.03;;
22357;SDS011;11346;50.150;8.150;2023-06-14T02:42:53;9.67;;;5.67;;
22357;SDS011;11346;50.150;8.150;2023-06-14T02:45:20;6.83;;;5.60;;
22357;SDS011;11346;50.150;8.150;2023-06-14T02:47:47;6.23;;;5.13;;
22357;SDS011;11346;50.150;8.150;2023-06-14T02:50:16;7.27;;;5.33;;
22357;SDS011;11346;50.150;8.150;2023-06-14T02:52:43;7.33;;;5.57;;
22357;SDS011;11346;50.150;8.150;2023-06-14T02:55:10;8.97;;;5.40;;
22357;SDS011;11346;50.150;8.150;2023-06-14T02:57:37;6.73;;;5.80;;
22357;SDS011;11346;50.150;8.150;2023-06-14T03:00:05;10.03;;;6.00;;
22357;SDS011;11346;50.150;8.150;2023-06-14T03:02:34;9.40;;;5.70;;
22357;SDS011;11346;50.150;8.150;2023-06-14T03:05:01;7.60;;;5.93;;
22357;SDS011;11346;50.150;8.150;2023-06-14T03:07:30;6.17;;;5.50;;
22357;SDS011;11346;50.150;8.150;2023-06-14T03:09:57;8.20;;;5.63;;
22357;SDS011;11346;50.150;8.150;2023-06-14T03:12:24;7.03;;;5.20;;
22357;SDS011;11346;50.150;8.150;2023-06-14T03:14:51;7.37;;;5.80;;
22357;SDS011;11346;50.150;8.150;2023-06-14T03:17:21;10.17;;;5.80;;
22357;SDS011;11346;50.150;8.150;2023-06-14T03:19:49;6.90;;;5.93;;
22357;SDS011;11346;50.150;8.150;2023-06-14T03:22:16;6.73;;;5.40;;
22357;SDS011;11346;50.150;8.150;2023-06-14T03:24:44;6.67;;;5.33;;
22357;SDS011;11346;50.150;8.150;2023-06-14T03:27:12;9.73;;;5.93;;
22357;SDS011;11346;50.150;8.150;2023-06-14T03:29:39;12.43;;;5.80;;
22357;SDS011;11346;50.150;8.150;2023-06-14T03:32:06;9.03;;;5.90;;
22357;SDS011;11346;50.150;8.150;2023-06-14T03:34:33;8.83;;;6.10;;
22357;SDS011;11346;50.150;8.150;2023-06-14T03:37:03;6.67;;;5.57;;
22357;SDS011;11346;50.150;8.150;2023-06-14T03:39:30;8.77;;;6.10;;
22357;SDS011;11346;50.150;8.150;2023-06-14T03:41:59;7.47;;;6.00;;
22357;SDS011;11346;50.150;8.150;2023-06-14T03:44:26;8.83;;;6.27;;
22357;SDS011;11346;50.150;8.150;2023-06-14T03:46:53;7.23;;;6.00;;
22357;SDS011;11346;50.150;8.150;2023-06-14T03:49:20;12.13;;;6.10;;
22357;SDS011;11346;50.150;8.150;2023-06-14T03:51:48;6.37;;;5.70;;
22357;SDS011;11346;50.150;8.150;2023-06-14T03:54:16;6.80;;;5.43;;
22357;SDS011;11346;50.150;8.150;2023-06-14T03:56:43;10.83;;;6.03;;
22357;SDS011;11346;50.150;8.150;2023-06-14T03:59:12;6.23;;;5.53;;
22357;SDS011;11346;50.150;8.150;2023-06-14T04:01:39;8.60;;;5.80;;
22357;SDS011;11346;50.150;8.150;2023-06-14T04:04:11;7.83;;;5.70;;
22357;SDS011;11346;50.150;8.150;2023-06-14T04:06:38;8.23;;;6.07;;
22357;SDS011;11346;50.150;8.150;2023-06-14T04:09:06;7.30;;;5.97;;
22357;SDS011;11346;50.150;8.150;2023-06-14T04:11:33;11.40;;;6.07;;
22357;SDS011;11346;50.150;8.150;2023-06-14T04:14:01;7.83;;;5.83;;
22357;SDS011;11346;50.150;8.150;2023-06-14T04:16:29;9.53;;;6.10;;
22357;SDS011;11346;50.150;8.150;2023-06-14T04:18:57;8.53;;;5.97;;
22357;SDS011;11346;50.150;8.150;2023-06-14T04:21:24;7.53;;;5.43;;
22357;SDS011;11346;50.150;8.150;2023-06-14T04:23:52;7.17;;;6.00;;
22357;SDS011;11346;50.150;8.150;2023-06-14T04:26:20;7.13;;;6.13;;
22357;SDS011;11346;50.150;8.150;2023-06-14T04:28:48;7.53;;;5.83;;
22357;SDS011;11346;50.150;8.150;2023-06-14T04:31:15;10.03;;;5.90;;
22357;SDS011;11346;50.150;8.150;2023-06-14T04:33:44;8.53;;;6.30;;
22357;SDS011;11346;50.150;8.150;2023-06-14T04:36:12;7.10;;;5.97;;
22357;SDS011;11346;50.150;8.150;2023-06-14T04:38:42;8.37;;;6.20;;
22357;SDS011;11346;50.150;8.150;2023-06-14T04:41:11;9.93;;;5.93;;
22357;SDS011;11346;50.150;8.150;2023-06-14T04:43:38;7.73;;;5.97;;
22357;SDS011;11346;50.150;8.150;2023-06-14T04:46:05;10.07;;;6.70;;
22357;SDS011;11346;50.150;8.150;2023-06-14T04:48:35;11.97;;;6.57;;
22357;SDS011;11346;50.150;8.150;2023-06-14T04:51:05;9.37;;;6.10;;
22357;SDS011;11346;50.150;8.150;2023-06-14T04:53:32;12.83;;;6.30;;
22357;SDS011;11346;50.150;8.150;2023-06-14T04:55:59;7.33;;;5.70;;
22357;SDS011;11346;50.150;8.150;2023-06-14T04:58:27;9.13;;;6.13;;
22357;SDS011;11346;50.150;8.150;2023-06-14T05:00:54;8.27;;;5.43;;
22357;SDS011;11346;50.150;8.150;2023-06-14T05:03:24;9.00;;;5.87;;
22357;SDS011;11346;50.150;8.150;2023-06-14T05:05:51;8.47;;;6.20;;
22357;SDS011;11346;50.150;8.150;2023-06-14T05:08:20;6.87;;;5.53;;
22357;SDS011;11346;50.150;8.150;2023-06-14T05:10:49;11.23;;;6.67;;
22357;SDS011;11346;50.150;8.150;2023-06-14T05:13:16;12.53;;;6.83;;
22357;SDS011;11346;50.150;8.150;2023-06-14T05:15:43;9.40;;;6.50;;
22357;SDS011;11346;50.150;8.150;2023-06-14T05:18:10;10.60;;;6.30;;
22357;SDS011;11346;50.150;8.150;2023-06-14T05:20:38;7.07;;;5.83;;
22357;SDS011;11346;50.150;8.150;2023-06-14T05:23:06;7.07;;;5.87;;
22357;SDS011;11346;50.150;8.150;2023-06-14T05:25:35;8.43;;;5.87;;
22357;SDS011;11346;50.150;8.150;2023-06-14T05:28:02;10.20;;;6.23;;
22357;SDS011;11346;50.150;8.150;2023-06-14T05:30:30;8.27;;;6.17;;
22357;SDS011;11346;50.150;8.150;2023-06-14T05:32:58;9.13;;;6.20;;
22357;SDS011;11346;50.150;8.150;2023-06-14T05:35:25;7.30;;;6.07;;
22357;SDS011;11346;50.150;8.150;2023-06-14T05:37:52;7.40;;;5.67;;
22357;SDS011;11346;50.150;8.150;2023-06-14T05:40:20;28.93;;;6.10;;
22357;SDS011;11346;50.150;8.150;2023-06-14T05:42:48;10.90;;;5.83;;
22357;SDS011;11346;50.150;8.150;2023-06-14T05:45:15;7.70;;;5.83;;
22357;SDS011;11346;50.150;8.150;2023-06-14T05:47:42;9.67;;;5.33;;
22357;SDS011;11346;50.150;8.150;2023-06-14T05:50:09;10.20;;;5.53;;
22357;SDS011;11346;50.150;8.150;2023-06-14T05:52:36;7.33;;;4.60;;
22357;SDS011;11346;50.150;8.150;2023-06-14T05:55:04;6.03;;;4.47;;
22357;SDS011;11346;50.150;8.150;2023-06-14T05:57:31;10.93;;;5.00;;
22357;SDS011;11346;50.150;8.150;2023-06-14T05:59:59;7.60;;;4.30;;
22357;SDS011;11346;50.150;8.150;2023-06-14T06:02:30;10.60;;;4.70;;
22357;SDS011;11346;50.150;8.150;2023-06-14T06:04:57;11.50;;;4.10;;
22357;SDS011;11346;50.150;8.150;2023-06-14T06:07:24;8.27;;;3.90;;
22357;SDS011;11346;50.150;8.150;2023-06-14T06:09:51;6.47;;;4.40;;
22357;SDS011;11346;50.150;8.150;2023-06-14T06:12:18;5.53;;;4.27;;
22357;SDS011;11346;50.150;8.150;2023-06-14T06:14:45;5.80;;;3.87;;
22357;SDS011;11346;50.150;8.150;2023-06-14T06:17:14;5.77;;;4.33;;
22357;SDS011;11346;50.150;8.150;2023-06-14T06:19:41;4.63;;;3.80;;
22357;SDS011;11346;50.150;8.150;2023-06-14T06:22:08;7.90;;;4.30;;
22357;SDS011;11346;50.150;8.150;2023-06-14T06:24:35;7.77;;;3.80;;
22357;SDS011;11346;50.150;8.150;2023-06-14T06:27:02;6.40;;;3.63;;
22357;SDS011;11346;50.150;8.150;2023-06-14T06:29:29;7.23;;;3.53;;
22357;SDS011;11346;50.150;8.150;2023-06-14T06:31:56;4.83;;;3.80;;
22357;SDS011;11346;50.150;8.150;2023-06-14T06:34:24;8.67;;;3.87;;
22357;SDS011;11346;50.150;8.150;2023-06-14T06:36:51;6.70;;;3.80;;
22357;SDS011;11346;50.150;8.150;2023-06-14T06:39:19;9.67;;;4.03;;
22357;SDS011;11346;50.150;8.150;2023-06-14T06:41:46;5.23;;;3.40;;
22357;SDS011;11346;50.150;8.150;2023-06-14T06:44:13;9.00;;;3.80;;
22357;SDS011;11346;50.150;8.150;2023-06-14T06:46:40;6.67;;;4.00;;
22357;SDS011;11346;50.150;8.150;2023-06-14T06:49:07;7.10;;;3.50;;
22357;SDS011;11346;50.150;8.150;2023-06-14T06:51:40;5.87;;;3.73;;
22357;SDS011;11346;50.150;8.150;2023-06-14T06:54:08;4.43;;;3.23;;
22357;SDS011;11346;50.150;8.150;2023-06-14T06:56:35;5.80;;;3.50;;
22357;SDS011;11346;50.150;8.150;2023-06-14T06:59:02;3.43;;;3.13;;
22357;SDS011;11346;50.150;8.150;2023-06-14T07:01:29;4.23;;;3.23;;
22357;SDS011;11346;50.150;8.150;2023-06-14T07:03:58;3.00;;;2.70;;
22357;SDS011;11346;50.150;8.150;2023-06-14T07:06:25;2.83;;;2.57;;
22357;SDS011;11346;50.150;8.150;2023-06-14T07:08:54;3.93;;;2.60;;
22357;SDS011;11346;50.150;8.150;2023-06-14T07:11:26;6.37;;;2.43;;
22357;SDS011;11346;50.150;8.150;2023-06-14T07:13:53;2.80;;;2.30;;
22357;SDS011;11346;50.150;8.150;2023-06-14T07:16:20;2.00;;;1.90;;
22357;SDS011;11346;50.150;8.150;2023-06-14T07:18:47;2.40;;;2.20;;
22357;SDS011;11346;50.150;8.150;2023-06-14T07:21:14;4.87;;;2.63;;
22357;SDS011;11346;50.150;8.150;2023-06-14T07:23:41;2.77;;;2.43;;
22357;SDS011;11346;50.150;8.150;2023-06-14T07:26:09;3.83;;;1.83;;
22357;SDS011;11346;50.150;8.150;2023-06-14T07:28:36;2.83;;;2.27;;
22357;SDS011;11346;50.150;8.150;2023-06-14T07:31:03;7.10;;;2.53;;
22357;SDS011;11346;50.150;8.150;2023-06-14T07:33:30;2.93;;;2.20;;
22357;SDS011;11346;50.150;8.150;2023-06-14T07:35:57;2.47;;;2.27;;
22357;SDS011;11346;50.150;8.150;2023-06-14T07:38:24;3.37;;;2.50;;
22357;SDS011;11346;50.150;8.150;2023-06-14T07:40:51;4.00;;;2.60;;
22357;SDS011;11346;50.150;8.150;2023-06-14T07:43:20;3.27;;;2.30;;
22357;SDS011;11346;50.150;8.150;2023-06-14T07:45:47;8.33;;;3.10;;
22357;SDS011;11346;50.150;8.150;2023-06-14T07:48:14;2.50;;;2.30;;
22357;SDS011;11346;50.150;8.150;2023-06-14T07:50:41;4.50;;;2.83;;
22357;SDS011;11346;50.150;8.150;2023-06-14T07:53:08;5.43;;;2.63;;
22357;SDS011;11346;50.150;8.150;2023-06-14T07:55:35;5.80;;;2.70;;
22357;SDS011;11346;50.150;8.150;2023-06-14T07:58:03;3.33;;;2.10;;
22357;SDS011;11346;50.150;8.150;2023-06-14T08:00:32;2.50;;;2.17;;
22357;SDS011;11346;50.150;8.150;2023-06-14T08:02:59;2.40;;;2.10;;
22357;SDS011;11346;50.150;8.150;2023-06-14T08:05:26;4.23;;;2.10;;
22357;SDS011;11346;50.150;8.150;2023-06-14T08:07:54;2.30;;;2.10;;
22357;SDS011;11346;50.150;8.150;2023-06-14T08:10:21;6.33;;;2.60;;
22357;SDS011;11346;50.150;8.150;2023-06-14T08:12:48;2.90;;;2.23;;
22357;SDS011;11346;50.150;8.150;2023-06-14T08:15:16;4.70;;;2.33;;
22357;SDS011;11346;50.150;8.150;2023-06-14T08:17:44;3.90;;;2.20;;
22357;SDS011;11346;50.150;8.150;2023-06-14T08:20:12;3.80;;;2.47;;
22357;SDS011;11346;50.150;8.150;2023-06-14T08:22:41;4.73;;;2.63;;
22357;SDS011;11346;50.150;8.150;2023-06-14T08:25:08;4.13;;;2.60;;
22357;SDS011;11346;50.150;8.150;2023-06-14T08:27:37;3.53;;;2.60;;
22357;SDS011;11346;50.150;8.150;2023-06-14T08:30:04;3.37;;;2.60;;
22357;SDS011;11346;50.150;8.150;2023-06-14T08:32:32;2.40;;;2.20;;
22357;SDS011;11346;50.150;8.150;2023-06-14T08:35:01;5.60;;;2.30;;
22357;SDS011;11346;50.150;8.150;2023-06-14T08:37:28;2.60;;;2.40;;
22357;SDS011;11346;50.150;8.150;2023-06-14T08:39:55;2.90;;;2.03;;
22357;SDS011;11346;50.150;8.150;2023-06-14T08:42:22;4.03;;;2.40;;
22357;SDS011;11346;50.150;8.150;2023-06-14T08:44:50;3.13;;;2.07;;
22357;SDS011;11346;50.150;8.150;2023-06-14T08:47:17;4.23;;;2.50;;
22357;SDS011;11346;50.150;8.150;2023-06-14T08:49:46;6.03;;;2.80;;
22357;SDS011;11346;50.150;8.150;2023-06-14T08:52:15;5.17;;;2.23;;
22357;SDS011;11346;50.150;8.150;2023-06-14T08:54:46;2.33;;;1.90;;
22357;SDS011;11346;50.150;8.150;2023-06-14T08:57:14;7.37;;;2.50;;
22357;SDS011;11346;50.150;8.150;2023-06-14T08:59:45;2.83;;;2.33;;
22357;SDS011;11346;50.150;8.150;2023-06-14T09:02:14;3.40;;;1.87;;
22357;SDS011;11346;50.150;8.150;2023-06-14T09:04:43;3.97;;;2.20;;
22357;SDS011;11346;50.150;8.150;2023-06-14T09:07:10;7.80;;;1.83;;
22357;SDS011;11346;50.150;8.150;2023-06-14T09:09:39;4.83;;;2.20;;
22357;SDS011;11346;50.150;8.150;2023-06-14T09:12:07;2.97;;;1.97;;
22357;SDS011;11346;50.150;8.150;2023-06-14T09:14:36;4.40;;;1.87;;
22357;SDS011;11346;50.150;8.150;2023-06-14T09:17:06;5.23;;;1.90;;
22357;SDS011;11346;50.150;8.150;2023-06-14T09:19:33;3.57;;;2.13;;
22357;SDS011;11346;50.150;8.150;2023-06-14T09:22:02;6.57;;;1.77;;
22357;SDS011;11346;50.150;8.150;2023-06-14T09:24:29;4.20;;;2.03;;
22357;SDS011;11346;50.150;8.150;2023-06-14T09:26:58;4.07;;;1.43;;
22357;SDS011;11346;50.150;8.150;2023-06-14T09:29:25;1.80;;;1.70;;
22357;SDS011;11346;50.150;8.150;2023-06-14T09:31:52;1.90;;;1.80;;
22357;SDS011;11346;50.150;8.150;2023-06-14T09:34:20;2.03;;;1.77;;
22357;SDS011;11346;50.150;8.150;2023-06-14T09:36:48;3.03;;;1.90;;
22357;SDS011;11346;50.150;8.150;2023-06-14T09:39:16;2.10;;;1.90;;
22357;SDS011;11346;50.150;8.150;2023-06-14T09:41:44;1.90;;;1.80;;
22357;SDS011;11346;50.150;8.150;2023-06-14T09:44:12;3.17;;;1.77;;
22357;SDS011;11346;50.150;8.150;2023-06-14T09:46:39;3.10;;;1.90;;
22357;SDS011;11346;50.150;8.150;2023-06-14T09:49:06;2.00;;;1.90;;
22357;SDS011;11346;50.150;8.150;2023-06-14T09:51:33;2.77;;;1.80;;
22357;SDS011;11346;50.150;8.150;2023-06-14T09:54:02;5.90;;;1.90;;
22357;SDS011;11346;50.150;8.150;2023-06-14T09:56:30;2.30;;;2.03;;
22357;SDS011;11346;50.150;8.150;2023-06-14T09:58:58;1.80;;;1.70;;
22357;SDS011;11346;50.150;8.150;2023-06-14T10:01:31;3.20;;;2.03;;
22357;SDS011;11346;50.150;8.150;2023-06-14T10:03:59;2.87;;;2.10;;
22357;SDS011;11346;50.150;8.150;2023-06-14T10:06:27;2.93;;;2.17;;
22357;SDS011;11346;50.150;8.150;2023-06-14T10:08:56;2.10;;;1.87;;
22357;SDS011;11346;50.150;8.150;2023-06-14T10:11:24;4.53;;;1.87;;
22357;SDS011;11346;50.150;8.150;2023-06-14T10:13:52;6.77;;;2.30;;
22357;SDS011;11346;50.150;8.150;2023-06-14T10:16:20;2.20;;;1.73;;
22357;SDS011;11346;50.150;8.150;2023-06-14T10:18:57;2.30;;;2.13;;
22357;SDS011;11346;50.150;8.150;2023-06-14T10:21:32;3.73;;;1.97;;
22357;SDS011;11346;50.150;8.150;2023-06-14T10:23:59;3.37;;;1.97;;
22357;SDS011;11346;50.150;8.150;2023-06-14T10:26:28;3.67;;;1.77;;
22357;SDS011;11346;50.150;8.150;2023-06-14T10:28:56;2.00;;;1.90;;
22357;SDS011;11346;50.150;8.150;2023-06-14T10:31:24;2.17;;;1.97;;
22357;SDS011;11346;50.150;8.150;2023-06-14T10:34:07;3.00;;;2.10;;
22357;SDS011;11346;50.150;8.150;2023-06-14T10:36:34;3.60;;;2.03;;
22357;SDS011;11346;50.150;8.150;2023-06-14T10:39:04;5.63;;;2.20;;
22357;SDS011;11346;50.150;8.150;2023-06-14T10:41:32;2.43;;;2.10;;
22357;SDS011;11346;50.150;8.150;2023-06-14T10:44:10;4.67;;;2.33;;
22357;SDS011;11346;50.150;8.150;2023-06-14T10:46:37;5.30;;;2.03;;
22357;SDS011;11346;50.150;8.150;2023-06-14T10:49:05;3.93;;;1.90;;
22357;SDS011;11346;50.150;8.150;2023-06-14T10:51:39;3.27;;;1.93;;
22357;SDS011;11346;50.150;8.150;2023-06-14T10:54:11;2.90;;;2.00;;
22357;SDS011;11346;50.150;8.150;2023-06-14T10:56:39;2.17;;;1.97;;
22357;SDS011;11346;50.150;8.150;2023-06-14T10:59:12;3.13;;;2.17;;
22357;SDS011;11346;50.150;8.150;2023-06-14T11:01:40;2.93;;;2.00;;
22357;SDS011;11346;50.150;8.150;2023-06-14T11:04:08;7.30;;;2.33;;
22357;SDS011;11346;50.150;8.150;2023-06-14T11:06:47;3.33;;;1.90;;
22357;SDS011;11346;50.150;8.150;2023-06-14T11:09:27;3.40;;;2.10;;
22357;SDS011;11346;50.150;8.150;2023-06-14T11:12:03;1.60;;;1.50;;
22357;SDS011;11346;50.150;8.150;2023-06-14T11:14:30;3.87;;;1.70;;
22357;SDS011;11346;50.150;8.150;2023-06-14T11:16:57;5.03;;;1.90;;
22357;SDS011;11346;50.150;8.150;2023-06-14T11:19:25;1.70;;;1.60;;
22357;SDS011;11346;50.150;8.150;2023-06-14T11:21:55;1.90;;;1.80;;
22357;SDS011;11346;50.150;8.150;2023-06-14T11:24:22;2.53;;;1.50;;
22357;SDS011;11346;50.150;8.150;2023-06-14T11:26:49;4.43;;;1.70;;
22357;SDS011;11346;50.150;8.150;2023-06-14T11:29:16;2.27;;;1.60;;
22357;SDS011;11346;50.150;8.150;2023-06-14T11:31:43;2.27;;;1.70;;
22357;SDS011;11346;50.150;8.150;2023-06-14T11:34:11;3.40;;;1.90;;
22357;SDS011;11346;50.150;8.150;2023-06-14T11:36:38;4.70;;;1.57;;
22357;SDS011;11346;50.150;8.150;2023-06-14T11:39:08;9.50;;;1.87;;
22357;SDS011;11346;50.150;8.150;2023-06-14T11:41:36;2.83;;;1.80;;
22357;SDS011;11346;50.150;8.150;2023-06-14T11:44:03;1.60;;;1.47;;
22357;SDS011;11346;50.150;8.150;2023-06-14T11:46:31;4.43;;;1.60;;
22357;SDS011;11346;50.150;8.150;2023-06-14T11:48:58;4.27;;;1.57;;
22357;SDS011;11346;50.150;8.150;2023-06-14T11:51:28;1.93;;;1.70;;
22357;SDS011;11346;50.150;8.150;2023-06-14T11:53:55;1.70;;;1.60;;
22357;SDS011;11346;50.150;8.150;2023-06-14T11:56:24;1.60;;;1.50;;
22357;SDS011;11346;50.150;8.150;2023-06-14T11:58:52;1.50;;;1.50;;
22357;SDS011;11346;50.150;8.150;2023-06-14T12:01:21;3.27;;;1.67;;
22357;SDS011;11346;50.150;8.150;2023-06-14T12:03:48;1.97;;;1.80;;
22357;SDS011;11346;50.150;8.150;2023-06-14T12:06:15;6.70;;;1.80;;
22357;SDS011;11346;50.150;8.150;2023-06-14T12:08:43;2.13;;;1.80;;
22357;SDS011;11346;50.150;8.150;2023-06-14T12:11:12;5.23;;;2.00;;
22357;SDS011;11346;50.150;8.150;2023-06-14T12:13:41;2.30;;;1.63;;
22357;SDS011;11346;50.150;8.150;2023-06-14T12:16:09;6.97;;;1.90;;
22357;SDS011;11346;50.150;8.150;2023-06-14T12:18:37;2.03;;;1.80;;
22357;SDS011;11346;50.150;8.150;2023-06-14T12:21:04;4.07;;;1.80;;
22357;SDS011;11346;50.150;8.150;2023-06-14T12:23:44;1.80;;;1.70;;
22357;SDS011;11346;50.150;8.150;2023-06-14T12:26:15;1.90;;;1.80;;
22357;SDS011;11346;50.150;8.150;2023-06-14T12:28:43;1.70;;;1.60;;
22357;SDS011;11346;50.150;8.150;2023-06-14T12:31:11;13.03;;;2.00;;
22357;SDS011;11346;50.150;8.150;2023-06-14T12:33:38;4.20;;;1.90;;
22357;SDS011;11346;50.150;8.150;2023-06-14T12:36:06;2.13;;;1.63;;
22357;SDS011;11346;50.150;8.150;2023-06-14T12:38:34;4.10;;;2.10;;
22357;SDS011;11346;50.150;8.150;2023-06-14T12:41:01;3.27;;;2.00;;
22357;SDS011;11346;50.150;8.150;2023-06-14T12:43:29;2.93;;;1.97;;
22357;SDS011;11346;50.150;8.150;2023-06-14T12:45:57;2.47;;;1.80;;
22357;SDS011;11346;50.150;8.150;2023-06-14T12:48:24;5.60;;;2.13;;
22357;SDS011;11346;50.150;8.150;2023-06-14T12:50:52;2.00;;;1.90;;
22357;SDS011;11346;50.150;8.150;2023-06-14T12:53:19;2.47;;;2.00;;
22357;SDS011;11346;50.150;8.150;2023-06-14T12:55:46;3.30;;;2.00;;
22357;SDS011;11346;50.150;8.150;2023-06-14T12:58:13;2.30;;;2.03;;
22357;SDS011;11346;50.150;8.150;2023-06-14T13:00:42;3.70;;;2.07;;
22357;SDS011;11346;50.150;8.150;2023-06-14T13:03:11;3.27;;;2.23;;
22357;SDS011;11346;50.150;8.150;2023-06-14T13:05:38;4.60;;;2.10;;
22357;SDS011;11346;50.150;8.150;2023-06-14T13:08:06;11.73;;;2.70;;
22357;SDS011;11346;50.150;8.150;2023-06-14T13:10:34;2.30;;;2.07;;
22357;SDS011;11346;50.150;8.150;2023-06-14T13:13:01;2.20;;;2.10;;
22357;SDS011;11346;50.150;8.150;2023-06-14T13:15:28;3.47;;;2.30;;
22357;SDS011;11346;50.150;8.150;2023-06-14T13:17:56;3.60;;;2.50;;
22357;SDS011;11346;50.150;8.150;2023-06-14T13:20:24;5.23;;;2.33;;
22357;SDS011;11346;50.150;8.150;2023-06-14T13:22:51;2.70;;;2.00;;
22357;SDS011;11346;50.150;8.150;2023-06-14T13:25:19;5.13;;;2.23;;
22357;SDS011;11346;50.150;8.150;2023-06-14T13:27:50;2.60;;;2.40;;
22357;SDS011;11346;50.150;8.150;2023-06-14T13:30:20;3.03;;;2.30;;
22357;SDS011;11346;50.150;8.150;2023-06-14T13:32:47;3.03;;;2.53;;
22357;SDS011;11346;50.150;8.150;2023-06-14T13:35:17;6.40;;;2.10;;
22357;SDS011;11346;50.150;8.150;2023-06-14T13:37:45;2.73;;;2.33;;
22357;SDS011;11346;50.150;8.150;2023-06-14T13:40:12;3.97;;;2.40;;
22357;SDS011;11346;50.150;8.150;2023-06-14T13:42:39;3.47;;;2.20;;
22357;SDS011;11346;50.150;8.150;2023-06-14T13:45:07;3.30;;;2.00;;
22357;SDS011;11346;50.150;8.150;2023-06-14T13:47:34;6.03;;;2.30;;
22357;SDS011;11346;50.150;8.150;2023-06-14T13:50:03;3.23;;;2.10;;
22357;SDS011;11346;50.150;8.150;2023-06-14T13:52:30;2.40;;;2.20;;
22357;SDS011;11346;50.150;8.150;2023-06-14T13:54:58;2.20;;;2.10;;
22357;SDS011;11346;50.150;8.150;2023-06-14T13:57:26;2.20;;;2.10;;
22357;SDS011;11346;50.150;8.150;2023-06-14T13:59:53;3.17;;;2.23;;
22357;SDS011;11346;50.150;8.150;2023-06-14T14:02:25;5.27;;;2.53;;
22357;SDS011;11346;50.150;8.150;2023-06-14T14:04:53;3.60;;;2.10;;
22357;SDS011;11346;50.150;8.150;2023-06-14T14:07:20;4.00;;;2.57;;
22357;SDS011;11346;50.150;8.150;2023-06-14T14:09:48;2.70;;;2.50;;
22357;SDS011;11346;50.150;8.150;2023-06-14T14:12:17;1.90;;;1.80;;
22357;SDS011;11346;50.150;8.150;2023-06-14T14:14:44;5.23;;;2.57;;
22357;SDS011;11346;50.150;8.150;2023-06-14T14:17:12;3.63;;;2.60;;
22357;SDS011;11346;50.150;8.150;2023-06-14T14:19:39;5.03;;;2.33;;
22357;SDS011;11346;50.150;8.150;2023-06-14T14:22:06;5.63;;;2.50;;
22357;SDS011;11346;50.150;8.150;2023-06-14T14:24:33;2.10;;;2.00;;
22357;SDS011;11346;50.150;8.150;2023-06-14T14:27:00;3.17;;;2.27;;
22357;SDS011;11346;50.150;8.150;2023-06-14T14:29:28;2.73;;;2.10;;
22357;SDS011;11346;50.150;8.150;2023-06-14T14:31:55;6.27;;;2.70;;
22357;SDS011;11346;50.150;8.150;2023-06-14T14:34:22;2.60;;;2.30;;
22357;SDS011;11346;50.150;8.150;2023-06-14T14:36:49;3.97;;;2.70;;
22357;SDS011;11346;50.150;8.150;2023-06-14T14:39:16;3.00;;;2.50;;
22357;SDS011;11346;50.150;8.150;2023-06-14T14:41:43;3.90;;;2.80;;
22357;SDS011;11346;50.150;8.150;2023-06-14T14:44:10;7.10;;;2.50;;
22357;SDS011;11346;50.150;8.150;2023-06-14T14:46:39;3.63;;;2.33;;
22357;SDS011;11346;50.150;8.150;2023-06-14T14:49:06;3.03;;;2.50;;